Time;durP1;ratioP1;P1;durP2;ratioP2;P2;SDS_P1;SDS_P2;PMS_P1;PMS_P2;Temp;Humidity;BMP_temperature;BMP_pressure;BME280_temperature;BME280_humidity;BME280_pressure;Samples;Min_cycle;Max_cycle;Signal;HPM_P1;HPM_P2
2023/05/18 00:01:59;;;;;;;7.82;1.90;;;10.40;99.90;;;;;;4978392;28;20022;-72
2023/05/18 00:04:24;;;;;;;10.00;2.40;;;10.30;99.90;;;;;;4977318;28;20030;-71
2023/05/18 00:07:02;;;;;;;6.50;2.30;;;10.30;99.90;;;;;;4978564;28;20073;-72
2023/05/18 00:09:29;;;;;;;8.98;1.92;;;10.40;99.90;;;;;;4977449;28;20059;-72
2023/05/18 00:11:55;;;;;;;6.80;2.50;;;10.30;99.90;;;;;;4978606;28;20049;-71
2023/05/18 00:14:21;;;;;;;12.85;3.72;;;10.10;99.90;;;;;;4977381;28;20054;-71
2023/05/18 00:16:48;;;;;;;8.25;2.70;;;10.00;99.90;;;;;;4977817;28;20051;-70
2023/05/18 00:19:14;;;;;;;6.05;2.00;;;10.10;99.90;;;;;;4977454;28;20118;-71
2023/05/18 00:21:47;;;;;;;10.88;2.40;;;10.00;99.90;;;;;;4977361;28;20034;-70
2023/05/18 00:24:14;;;;;;;8.98;2.20;;;10.00;99.90;;;;;;4977199;28;20035;-71
2023/05/18 00:26:42;;;;;;;7.00;2.45;;;9.90;99.90;;;;;;4977701;28;20031;-71
2023/05/18 00:29:08;;;;;;;6.68;2.47;;;9.80;99.90;;;;;;4977501;28;20053;-70
2023/05/18 00:31:35;;;;;;;6.85;2.30;;;9.80;99.90;;;;;;4977277;28;20030;-70
2023/05/18 00:34:14;;;;;;;7.28;2.20;;;9.70;99.90;;;;;;4977116;28;20027;-71
2023/05/18 00:36:40;;;;;;;4.40;1.80;;;9.60;99.90;;;;;;4977218;28;20034;-71
2023/05/18 00:39:07;;;;;;;10.27;1.98;;;9.60;99.90;;;;;;4977550;28;20027;-71
2023/05/18 00:41:33;;;;;;;8.15;2.17;;;9.70;99.90;;;;;;4976990;28;20022;-71
2023/05/18 00:43:59;;;;;;;10.52;2.67;;;9.60;99.90;;;;;;4977150;28;20031;-71
2023/05/18 00:46:26;;;;;;;15.10;3.58;;;9.60;99.90;;;;;;4978087;28;20023;-71
2023/05/18 00:48:53;;;;;;;5.97;2.10;;;9.60;99.90;;;;;;4977831;28;20054;-71
2023/05/18 00:51:22;;;;;;;5.65;1.80;;;9.60;99.90;;;;;;4977395;28;20058;-70
2023/05/18 00:53:48;;;;;;;10.02;2.40;;;9.80;99.90;;;;;;4977665;28;20034;-70
2023/05/18 00:56:14;;;;;;;5.50;1.95;;;9.50;99.90;;;;;;4976880;28;20110;-70
2023/05/18 00:58:41;;;;;;;4.57;1.90;;;9.60;99.90;;;;;;4977126;28;20023;-70
2023/05/18 01:01:08;;;;;;;16.23;2.25;;;9.70;99.90;;;;;;4978052;28;20106;-71
2023/05/18 01:03:36;;;;;;;7.07;2.00;;;9.40;99.90;;;;;;4978069;28;20027;-70
2023/05/18 01:06:04;;;;;;;7.97;2.28;;;9.20;99.90;;;;;;4976906;28;20026;-70
2023/05/18 01:08:30;;;;;;;7.32;2.08;;;9.40;99.90;;;;;;4977687;28;20023;-71
2023/05/18 01:11:10;;;;;;;7.60;2.03;;;9.50;99.90;;;;;;4977863;28;20045;-71
2023/05/18 01:13:52;;;;;;;9.40;2.25;;;9.30;99.90;;;;;;4977690;28;20050;-71
2023/05/18 01:16:25;;;;;;;7.78;2.40;;;9.30;99.90;;;;;;4977464;28;20031;-71
2023/05/18 01:18:59;;;;;;;7.55;2.28;;;9.10;99.90;;;;;;4980407;28;20029;-71
2023/05/18 01:21:52;;;;;;;6.57;1.83;;;9.10;99.90;;;;;;4980334;28;20027;-71
2023/05/18 01:24:29;;;;;;;8.32;2.10;;;9.00;99.90;;;;;;4999351;28;20042;-71
2023/05/18 01:26:58;;;;;;;7.85;2.25;;;9.00;99.90;;;;;;4999114;28;20035;-70
2023/05/18 01:29:25;;;;;;;10.82;3.05;;;9.00;99.90;;;;;;4982893;28;20093;-71
2023/05/18 01:31:51;;;;;;;6.72;1.80;;;8.80;99.90;;;;;;4982667;28;20027;-70
2023/05/18 01:34:17;;;;;;;6.55;2.28;;;9.00;99.90;;;;;;4983072;28;20022;-70
2023/05/18 01:36:43;;;;;;;5.38;2.05;;;9.00;99.90;;;;;;4998799;28;20030;-71
2023/05/18 01:39:08;;;;;;;5.18;2.10;;;9.00;99.90;;;;;;4998714;28;20022;-70
2023/05/18 01:41:38;;;;;;;5.72;2.10;;;9.00;99.90;;;;;;4982559;28;20031;-70
2023/05/18 01:44:11;;;;;;;8.60;2.58;;;8.90;99.90;;;;;;4998650;28;20061;-71
2023/05/18 01:46:53;;;;;;;5.13;1.98;;;9.00;99.90;;;;;;4982343;28;20033;-70
2023/05/18 01:49:33;;;;;;;7.63;1.92;;;9.10;99.90;;;;;;4982548;28;20065;-70
2023/05/18 01:52:05;;;;;;;4.68;2.00;;;9.00;99.90;;;;;;4982340;28;20037;-70
2023/05/18 01:54:32;;;;;;;9.43;2.15;;;9.00;99.90;;;;;;4982510;28;20038;-70
2023/05/18 01:56:58;;;;;;;8.70;2.20;;;9.10;99.90;;;;;;4998547;28;20038;-70
2023/05/18 01:59:24;;;;;;;13.85;2.33;;;9.00;99.90;;;;;;4998605;28;20050;-70
2023/05/18 02:01:50;;;;;;;8.13;2.13;;;8.90;99.90;;;;;;4983864;28;20031;-70
2023/05/18 02:04:16;;;;;;;9.45;2.35;;;8.60;99.90;;;;;;4980453;28;20078;-70
2023/05/18 02:06:41;;;;;;;7.97;2.10;;;8.50;99.90;;;;;;4979776;28;20113;-70
2023/05/18 02:09:07;;;;;;;4.60;2.20;;;8.50;99.90;;;;;;4980402;28;20066;-71
2023/05/18 02:11:33;;;;;;;4.65;2.00;;;8.70;99.90;;;;;;4979317;28;20038;-71
2023/05/18 02:13:59;;;;;;;6.88;2.00;;;8.80;99.90;;;;;;4979526;28;20023;-70
2023/05/18 02:16:25;;;;;;;4.90;2.00;;;8.50;99.90;;;;;;4979336;28;20065;-72
2023/05/18 02:18:51;;;;;;;3.22;1.80;;;8.50;99.90;;;;;;4979251;28;20019;-70
2023/05/18 02:21:17;;;;;;;8.55;1.95;;;8.50;99.90;;;;;;4980116;28;20019;-71
2023/05/18 02:23:43;;;;;;;7.80;2.55;;;8.60;99.90;;;;;;4980067;28;20053;-71
2023/05/18 02:26:09;;;;;;;5.18;2.35;;;8.80;99.90;;;;;;4979071;28;20033;-71
2023/05/18 02:28:34;;;;;;;5.55;2.00;;;8.80;99.90;;;;;;4979709;28;20038;-71
2023/05/18 02:31:05;;;;;;;7.22;2.25;;;8.80;99.90;;;;;;4980104;28;20066;-71
2023/05/18 02:33:38;;;;;;;11.82;2.70;;;8.80;99.90;;;;;;4979689;28;20027;-71
2023/05/18 02:36:07;;;;;;;12.00;2.47;;;8.60;99.90;;;;;;4979086;28;20027;-71
2023/05/18 02:38:39;;;;;;;17.70;2.72;;;8.60;99.90;;;;;;4979819;28;20034;-71
2023/05/18 02:41:05;;;;;;;10.45;1.90;;;8.70;99.90;;;;;;4978873;28;20046;-71
2023/05/18 02:43:31;;;;;;;6.28;2.17;;;8.60;99.90;;;;;;4978830;28;20117;-70
2023/05/18 02:45:57;;;;;;;9.50;2.20;;;8.50;99.90;;;;;;4979084;28;20030;-71
2023/05/18 02:48:22;;;;;;;3.95;2.03;;;8.40;99.90;;;;;;4979293;28;20034;-70
2023/05/18 02:50:48;;;;;;;8.55;2.72;;;8.40;99.90;;;;;;4978771;28;20026;-70
2023/05/18 02:53:14;;;;;;;10.30;2.17;;;8.50;99.90;;;;;;4978818;28;20027;-71
2023/05/18 02:55:40;;;;;;;5.55;2.28;;;8.20;99.90;;;;;;4978547;28;20023;-70
2023/05/18 02:58:06;;;;;;;5.05;2.05;;;8.20;99.90;;;;;;4979708;28;20057;-71
2023/05/18 03:00:32;;;;;;;7.65;2.38;;;7.90;99.90;;;;;;4979520;28;20078;-71
2023/05/18 03:02:59;;;;;;;11.07;2.38;;;7.70;99.90;;;;;;4978509;28;20029;-70
2023/05/18 03:05:25;;;;;;;7.10;2.22;;;7.80;99.90;;;;;;4978878;28;20023;-70
2023/05/18 03:07:51;;;;;;;12.13;2.90;;;7.90;99.90;;;;;;4979341;28;20019;-70
2023/05/18 03:10:20;;;;;;;10.10;2.10;;;8.00;99.90;;;;;;4978349;28;20030;-70
2023/05/18 03:12:47;;;;;;;5.38;2.45;;;7.90;99.90;;;;;;4978414;28;20030;-70
2023/05/18 03:15:15;;;;;;;12.10;2.60;;;8.00;99.90;;;;;;4978772;28;20070;-70
2023/05/18 03:17:41;;;;;;;3.40;2.15;;;7.90;99.90;;;;;;4978757;28;20058;-71
2023/05/18 03:20:10;;;;;;;9.90;2.33;;;8.00;99.90;;;;;;4979220;28;20023;-71
2023/05/18 03:22:38;;;;;;;6.82;2.60;;;8.00;99.90;;;;;;4978925;28;20027;-71
2023/05/18 03:25:04;;;;;;;5.93;2.70;;;8.10;99.90;;;;;;4978387;28;20054;-71
2023/05/18 03:27:30;;;;;;;5.95;2.88;;;8.00;99.90;;;;;;4977983;28;20035;-70
2023/05/18 03:29:56;;;;;;;9.63;2.40;;;7.60;99.90;;;;;;4977911;28;20027;-71
2023/05/18 03:32:23;;;;;;;7.28;1.98;;;7.70;99.90;;;;;;4977877;28;20026;-71
2023/05/18 03:34:50;;;;;;;9.90;1.83;;;8.10;99.90;;;;;;4978210;28;20034;-70
2023/05/18 03:37:16;;;;;;;9.23;2.35;;;7.80;99.90;;;;;;4978671;28;20018;-71
2023/05/18 03:39:42;;;;;;;6.65;1.88;;;7.80;99.90;;;;;;4977470;28;20118;-71
2023/05/18 03:42:07;;;;;;;6.45;2.35;;;7.80;99.90;;;;;;4977907;28;20057;-71
2023/05/18 03:44:33;;;;;;;4.13;1.88;;;7.80;99.90;;;;;;4978104;28;20126;-71
2023/05/18 03:46:58;;;;;;;10.88;2.60;;;7.80;99.90;;;;;;4977821;28;20037;-71
2023/05/18 03:49:24;;;;;;;10.10;2.83;;;7.90;99.90;;;;;;4978056;28;20177;-70
2023/05/18 03:51:50;;;;;;;5.13;2.10;;;7.90;99.90;;;;;;4977744;28;20035;-71
2023/05/18 03:54:15;;;;;;;7.65;2.08;;;7.90;99.90;;;;;;4978477;28;20023;-70
2023/05/18 03:56:41;;;;;;;7.70;2.10;;;7.70;99.90;;;;;;4977974;28;20031;-71
2023/05/18 03:59:06;;;;;;;10.57;2.80;;;7.80;99.90;;;;;;4977985;28;20033;-71
2023/05/18 04:01:32;;;;;;;6.35;2.42;;;7.70;99.90;;;;;;4978488;28;20022;-71
2023/05/18 04:03:59;;;;;;;5.43;2.17;;;7.60;99.90;;;;;;4977749;28;20153;-71
2023/05/18 04:06:25;;;;;;;5.88;2.65;;;7.70;99.90;;;;;;4977375;28;20023;-70
2023/05/18 04:08:54;;;;;;;6.43;2.25;;;7.60;99.90;;;;;;4978362;28;20034;-71
2023/05/18 04:11:21;;;;;;;8.50;2.03;;;7.50;99.90;;;;;;4977285;28;20033;-70
2023/05/18 04:13:46;;;;;;;12.48;2.55;;;7.60;99.90;;;;;;4978459;28;20023;-70
2023/05/18 04:16:12;;;;;;;9.52;2.88;;;7.40;99.90;;;;;;4977515;28;20037;-70
2023/05/18 04:18:40;;;;;;;5.63;2.28;;;7.40;99.90;;;;;;4978237;28;20118;-70
2023/05/18 04:21:06;;;;;;;11.23;2.90;;;7.40;99.90;;;;;;4977319;28;20058;-70
2023/05/18 04:23:37;;;;;;;6.97;2.10;;;7.50;99.90;;;;;;4977308;28;20042;-70
2023/05/18 04:26:04;;;;;;;10.82;2.20;;;7.60;99.90;;;;;;4977307;28;20026;-71
2023/05/18 04:28:30;;;;;;;16.05;2.60;;;7.40;99.90;;;;;;4978112;28;20023;-71
2023/05/18 04:30:55;;;;;;;16.55;3.33;;;7.20;99.90;;;;;;4977203;28;20034;-71
2023/05/18 04:33:21;;;;;;;5.03;2.13;;;7.10;99.90;;;;;;4977191;28;20023;-70
2023/05/18 04:35:47;;;;;;;5.40;2.28;;;7.00;99.90;;;;;;4977542;28;20026;-71
2023/05/18 04:38:13;;;;;;;9.05;2.20;;;7.30;99.90;;;;;;4977549;28;20023;-71
2023/05/18 04:40:41;;;;;;;16.45;3.35;;;7.20;99.90;;;;;;4977389;28;20023;-71
2023/05/18 04:43:07;;;;;;;4.00;2.15;;;7.40;99.90;;;;;;4977194;28;20114;-71
2023/05/18 04:45:32;;;;;;;7.88;2.17;;;7.50;99.90;;;;;;4977109;28;20046;-70
2023/05/18 04:47:58;;;;;;;7.30;2.90;;;7.60;99.90;;;;;;4977027;28;20023;-71
2023/05/18 04:50:23;;;;;;;6.18;1.92;;;7.50;99.90;;;;;;4978861;28;20079;-71
2023/05/18 04:52:50;;;;;;;7.90;2.38;;;7.50;99.90;;;;;;4982127;28;20047;-70
2023/05/18 04:55:21;;;;;;;3.63;2.13;;;7.60;99.90;;;;;;4980770;28;20030;-71
2023/05/18 04:57:49;;;;;;;9.88;2.17;;;7.70;99.90;;;;;;4980921;28;20023;-71
2023/05/18 05:00:16;;;;;;;11.82;2.60;;;7.60;99.90;;;;;;4980991;28;20031;-70
2023/05/18 05:02:41;;;;;;;7.43;2.95;;;7.80;99.90;;;;;;4980601;28;20027;-70
2023/05/18 05:05:07;;;;;;;9.30;2.30;;;7.60;99.90;;;;;;4980899;28;20029;-70
2023/05/18 05:07:33;;;;;;;7.45;2.33;;;7.90;99.90;;;;;;4981012;28;20030;-71
2023/05/18 05:09:58;;;;;;;10.52;2.58;;;7.90;99.90;;;;;;4981528;28;20112;-71
2023/05/18 05:12:24;;;;;;;6.47;2.63;;;7.90;99.90;;;;;;4981746;28;20030;-71
2023/05/18 05:14:49;;;;;;;5.00;2.30;;;7.80;99.90;;;;;;4981886;28;20058;-71
2023/05/18 05:17:15;;;;;;;5.53;2.28;;;8.10;99.90;;;;;;4980738;28;20050;-71
2023/05/18 05:19:41;;;;;;;13.48;2.55;;;8.10;99.90;;;;;;4981232;28;20023;-71
2023/05/18 05:22:06;;;;;;;12.63;2.88;;;8.10;99.90;;;;;;4980417;28;20054;-71
2023/05/18 05:24:32;;;;;;;14.48;2.25;;;7.90;99.90;;;;;;4980664;28;20027;-70
2023/05/18 05:26:57;;;;;;;11.98;2.90;;;8.10;99.90;;;;;;4980498;28;20033;-70
2023/05/18 05:29:25;;;;;;;12.07;3.22;;;8.10;99.90;;;;;;4981349;28;20062;-70
2023/05/18 05:31:50;;;;;;;9.27;2.67;;;8.20;99.90;;;;;;4981209;28;20026;-71
2023/05/18 05:34:16;;;;;;;8.85;2.72;;;8.30;99.90;;;;;;4980930;28;20031;-71
2023/05/18 05:36:41;;;;;;;9.32;2.53;;;8.40;99.90;;;;;;4980700;28;20023;-71
2023/05/18 05:39:07;;;;;;;10.93;2.13;;;8.50;99.90;;;;;;4980109;28;20033;-71
2023/05/18 05:41:32;;;;;;;5.68;2.67;;;8.50;99.90;;;;;;4980269;28;20034;-71
2023/05/18 05:43:58;;;;;;;14.15;2.45;;;8.60;99.90;;;;;;4980401;28;20029;-71
2023/05/18 05:46:24;;;;;;;5.10;2.40;;;8.50;99.90;;;;;;4979843;28;20054;-71
2023/05/18 05:48:49;;;;;;;6.35;2.03;;;8.40;99.90;;;;;;4980148;28;20058;-71
2023/05/18 05:51:15;;;;;;;9.77;2.20;;;8.70;99.90;;;;;;4979864;28;20118;-70
2023/05/18 05:53:42;;;;;;;4.43;1.80;;;8.60;99.90;;;;;;4979739;28;20031;-71
2023/05/18 05:56:08;;;;;;;5.75;2.17;;;8.80;99.90;;;;;;4980856;28;20019;-71
2023/05/18 05:58:33;;;;;;;9.57;2.53;;;8.80;99.90;;;;;;4980813;28;20026;-70
2023/05/18 06:01:00;;;;;;;9.10;2.13;;;8.80;99.90;;;;;;4979653;28;20038;-70
2023/05/18 06:03:25;;;;;;;7.45;2.20;;;8.90;99.90;;;;;;4979253;28;20027;-71
2023/05/18 06:05:51;;;;;;;11.65;2.67;;;9.10;99.90;;;;;;4979843;28;20027;-72
2023/05/18 06:08:16;;;;;;;12.57;2.42;;;9.30;99.90;;;;;;4979528;28;20027;-70
2023/05/18 06:10:42;;;;;;;10.63;2.65;;;9.40;99.90;;;;;;4979574;28;20019;-71
2023/05/18 06:13:07;;;;;;;7.65;2.05;;;9.40;99.90;;;;;;4979537;28;20027;-70
2023/05/18 06:15:33;;;;;;;6.63;2.63;;;9.40;99.90;;;;;;4979219;28;20030;-71
2023/05/18 06:17:59;;;;;;;5.63;2.30;;;9.40;99.90;;;;;;4979976;28;20033;-74
2023/05/18 06:20:26;;;;;;;7.68;2.10;;;9.70;99.90;;;;;;4979344;28;20034;-74
2023/05/18 06:22:51;;;;;;;15.90;2.72;;;9.90;99.90;;;;;;4980388;28;20053;-75
2023/05/18 06:25:17;;;;;;;9.40;2.28;;;10.00;99.90;;;;;;4980078;28;20122;-75
2023/05/18 06:27:44;;;;;;;7.38;2.38;;;10.10;99.90;;;;;;4979481;28;20110;-75
2023/05/18 06:30:10;;;;;;;8.57;2.15;;;10.30;99.90;;;;;;4979432;28;20031;-75
2023/05/18 06:32:36;;;;;;;8.82;2.30;;;10.30;99.90;;;;;;4980038;28;20037;-75
2023/05/18 06:35:02;;;;;;;9.25;1.70;;;10.20;99.90;;;;;;4980255;28;20113;-76
2023/05/18 06:37:28;;;;;;;3.25;1.55;;;10.20;99.90;;;;;;4979251;28;20027;-75
2023/05/18 06:39:54;;;;;;;8.05;1.90;;;10.20;99.90;;;;;;4979839;28;20034;-72
2023/05/18 06:42:20;;;;;;;9.77;2.63;;;10.20;99.90;;;;;;4979361;28;20019;-71
2023/05/18 06:44:45;;;;;;;9.85;2.50;;;10.30;99.90;;;;;;4978932;28;20033;-71
2023/05/18 06:47:11;;;;;;;8.50;2.33;;;10.40;99.90;;;;;;4979277;28;20023;-75
2023/05/18 06:49:36;;;;;;;6.65;2.03;;;10.50;99.90;;;;;;4978747;28;20165;-76
2023/05/18 06:52:02;;;;;;;4.18;2.08;;;10.60;99.90;;;;;;4978800;28;20057;-75
2023/05/18 06:54:29;;;;;;;6.47;2.78;;;10.70;99.90;;;;;;4978640;28;20074;-75
2023/05/18 06:56:55;;;;;;;8.68;1.83;;;10.70;99.90;;;;;;4979489;28;20023;-76
2023/05/18 06:59:21;;;;;;;4.57;1.52;;;10.90;99.90;;;;;;4979679;28;20023;-72
2023/05/18 07:01:46;;;;;;;10.48;2.05;;;11.00;99.90;;;;;;4978637;28;20055;-71
2023/05/18 07:04:12;;;;;;;6.03;1.77;;;10.90;99.90;;;;;;4979477;28;20023;-72
2023/05/18 07:06:37;;;;;;;7.32;1.73;;;11.00;99.90;;;;;;4978683;28;20053;-72
2023/05/18 07:09:03;;;;;;;7.25;2.10;;;11.20;99.90;;;;;;4979437;28;20037;-78
2023/05/18 07:11:29;;;;;;;10.65;2.30;;;11.10;99.90;;;;;;4978470;28;20089;-80
2023/05/18 07:13:55;;;;;;;7.78;1.77;;;11.30;99.90;;;;;;4977681;28;20042;-77
2023/05/18 07:16:20;;;;;;;5.85;2.00;;;11.30;99.90;;;;;;4978149;28;20033;-81
2023/05/18 07:18:46;;;;;;;6.43;1.80;;;11.40;99.90;;;;;;4978411;28;20019;-80
2023/05/18 07:21:11;;;;;;;8.02;1.58;;;11.50;99.90;;;;;;4979086;28;20026;-73
2023/05/18 07:23:37;;;;;;;2.88;1.60;;;11.60;99.90;;;;;;4978471;28;20058;-73
2023/05/18 07:26:02;;;;;;;9.02;2.30;;;11.70;99.90;;;;;;4978787;28;20027;-72
2023/05/18 07:28:28;;;;;;;16.27;3.03;;;11.70;99.90;;;;;;4978929;28;20033;-72
2023/05/18 07:30:53;;;;;;;7.47;2.00;;;11.70;99.90;;;;;;4978100;28;20105;-72
2023/05/18 07:33:19;;;;;;;8.40;2.05;;;11.80;99.90;;;;;;4977979;28;20023;-72
2023/05/18 07:35:44;;;;;;;4.55;1.85;;;11.90;99.90;;;;;;4978763;28;20027;-77
2023/05/18 07:38:10;;;;;;;8.40;2.45;;;12.00;99.90;;;;;;4979172;28;20090;-77
2023/05/18 07:40:36;;;;;;;8.57;1.77;;;12.10;99.90;;;;;;4978680;28;20026;-77
2023/05/18 07:43:01;;;;;;;8.20;2.10;;;12.10;99.90;;;;;;4977927;28;20027;-78
2023/05/18 07:45:27;;;;;;;13.05;2.08;;;12.10;99.90;;;;;;4977828;28;20029;-78
2023/05/18 07:47:53;;;;;;;10.05;1.58;;;12.30;99.90;;;;;;4978863;28;20031;-77
2023/05/18 07:50:18;;;;;;;5.13;1.83;;;12.40;99.90;;;;;;4978494;28;20030;-76
2023/05/18 07:52:44;;;;;;;8.40;1.80;;;12.50;99.90;;;;;;4977885;28;20031;-77
2023/05/18 07:55:10;;;;;;;8.35;1.88;;;12.50;99.90;;;;;;4977638;28;20073;-77
2023/05/18 07:57:35;;;;;;;11.75;1.95;;;12.60;99.90;;;;;;4977552;28;20027;-75
2023/05/18 08:00:03;;;;;;;9.80;1.70;;;12.70;99.90;;;;;;4977628;28;20033;-76
2023/05/18 08:02:29;;;;;;;6.35;1.58;;;12.70;99.90;;;;;;4977722;28;20111;-76
2023/05/18 08:04:54;;;;;;;10.50;1.80;;;12.80;99.90;;;;;;4977700;28;20114;-76
2023/05/18 08:07:20;;;;;;;7.20;1.75;;;12.80;99.90;;;;;;4977540;28;20026;-76
2023/05/18 08:09:45;;;;;;;5.00;1.38;;;12.90;99.90;;;;;;4978100;28;20029;-76
2023/05/18 08:12:11;;;;;;;9.80;2.10;;;13.00;99.90;;;;;;4978359;28;20026;-72
2023/05/18 08:14:36;;;;;;;7.63;2.42;;;13.00;99.90;;;;;;4977869;28;20065;-72
2023/05/18 08:17:03;;;;;;;11.32;1.80;;;13.00;99.90;;;;;;4977494;28;20158;-76
2023/05/18 08:19:28;;;;;;;9.55;2.30;;;13.10;99.90;;;;;;4978148;28;20038;-77
2023/05/18 08:21:54;;;;;;;7.13;1.88;;;13.30;99.90;;;;;;4977397;28;20035;-76
2023/05/18 08:24:19;;;;;;;7.18;2.03;;;13.30;99.90;;;;;;4978198;28;20085;-76
2023/05/18 08:26:45;;;;;;;7.10;1.98;;;13.50;99.90;;;;;;4977930;28;20031;-76
2023/05/18 08:29:10;;;;;;;6.47;2.33;;;13.60;99.90;;;;;;4977255;28;20038;-76
2023/05/18 08:31:40;;;;;;;7.70;1.80;;;13.50;99.90;;;;;;4977191;28;20054;-76
2023/05/18 08:34:06;;;;;;;8.27;1.73;;;13.50;99.90;;;;;;4977502;28;20117;-76
2023/05/18 08:36:35;;;;;;;6.85;2.38;;;13.60;99.90;;;;;;4977450;28;20054;-73
2023/05/18 08:39:01;;;;;;;5.95;1.63;;;13.80;99.90;;;;;;4978190;28;20152;-73
2023/05/18 08:41:52;;;;;;;9.07;1.80;;;13.80;99.90;;;;;;4977558;28;20086;-73
2023/05/18 08:44:28;;;;;;;8.77;2.05;;;14.20;99.90;;;;;;4977889;28;20026;-73
2023/05/18 08:46:55;;;;;;;13.13;2.17;;;14.40;99.90;;;;;;4977333;28;20031;-73
2023/05/18 08:49:21;;;;;;;5.25;2.00;;;14.40;99.90;;;;;;4978024;28;20034;-76
2023/05/18 08:51:59;;;;;;;7.30;1.60;;;14.20;99.90;;;;;;4977200;28;20019;-76
2023/05/18 08:54:25;;;;;;;5.90;1.95;;;14.20;99.90;;;;;;4977760;28;20037;-73
2023/05/18 08:56:52;;;;;;;5.72;1.30;;;14.40;99.90;;;;;;4976992;28;20049;-73
2023/05/18 08:59:22;;;;;;;5.90;1.70;;;14.60;99.90;;;;;;4977041;28;20051;-73
2023/05/18 09:01:47;;;;;;;9.07;2.80;;;14.80;99.90;;;;;;4977812;28;20027;-76
2023/05/18 09:04:15;;;;;;;7.85;1.88;;;14.70;99.90;;;;;;4978067;28;20027;-76
2023/05/18 09:06:41;;;;;;;9.18;2.30;;;14.70;99.90;;;;;;4977832;28;20027;-76
2023/05/18 09:09:08;;;;;;;9.30;1.83;;;14.90;99.90;;;;;;4977165;28;20027;-76
2023/05/18 09:11:34;;;;;;;6.20;1.70;;;14.90;99.90;;;;;;4978088;28;20217;-76
2023/05/18 09:14:00;;;;;;;15.98;2.75;;;15.20;99.90;;;;;;4976777;28;20062;-76
2023/05/18 09:16:26;;;;;;;6.32;1.60;;;15.10;99.90;;;;;;4977075;28;20058;-76
2023/05/18 09:18:52;;;;;;;8.98;1.67;;;15.00;99.90;;;;;;4977157;28;20101;-73
2023/05/18 09:21:18;;;;;;;6.18;1.83;;;15.10;99.90;;;;;;4976781;28;20019;-73
2023/05/18 09:23:43;;;;;;;10.13;1.85;;;15.20;99.90;;;;;;4977114;28;20097;-72
2023/05/18 09:26:10;;;;;;;9.07;2.28;;;15.30;99.90;;;;;;4976669;28;20038;-73
2023/05/18 09:28:42;;;;;;;7.93;1.80;;;15.20;99.90;;;;;;4976859;28;20019;-77
2023/05/18 09:31:15;;;;;;;9.45;2.10;;;15.40;99.90;;;;;;4977073;28;20022;-73
2023/05/18 09:33:42;;;;;;;10.25;2.28;;;15.50;99.90;;;;;;4976811;28;20057;-76
2023/05/18 09:36:09;;;;;;;10.50;2.08;;;15.60;99.90;;;;;;4976533;28;20023;-72
2023/05/18 09:38:42;;;;;;;7.65;2.30;;;15.80;99.90;;;;;;4979307;28;20026;-76
2023/05/18 09:41:16;;;;;;;5.45;1.73;;;16.00;99.90;;;;;;4981097;28;20149;-76
2023/05/18 09:43:42;;;;;;;12.07;2.40;;;16.00;99.90;;;;;;4980150;28;20026;-77
2023/05/18 09:46:09;;;;;;;8.43;2.65;;;16.00;99.90;;;;;;4979916;28;20033;-77
2023/05/18 09:48:36;;;;;;;4.97;1.80;;;15.90;99.90;;;;;;4979995;28;20034;-77
2023/05/18 09:51:06;;;;;;;8.05;1.88;;;15.90;99.90;;;;;;4980233;28;20081;-73
2023/05/18 09:53:36;;;;;;;8.40;2.90;;;16.00;99.90;;;;;;4980847;28;20149;-76
2023/05/18 09:56:05;;;;;;;9.20;2.58;;;16.00;99.90;;;;;;4980970;28;20026;-73
2023/05/18 09:58:33;;;;;;;5.13;1.83;;;16.20;99.90;;;;;;4979852;28;20019;-73
2023/05/18 10:01:01;;;;;;;9.65;2.20;;;16.00;99.90;;;;;;4980755;28;20114;-73
2023/05/18 10:03:37;;;;;;;6.88;1.90;;;16.30;99.90;;;;;;4979736;28;20033;-77
2023/05/18 10:06:12;;;;;;;14.02;2.08;;;16.20;99.90;;;;;;4980808;28;20107;-73
2023/05/18 10:08:38;;;;;;;13.27;1.90;;;16.50;99.90;;;;;;4980599;28;20023;-76
2023/05/18 10:11:04;;;;;;;5.43;1.90;;;16.60;99.90;;;;;;4979696;28;20031;-76
2023/05/18 10:13:31;;;;;;;5.78;2.05;;;17.00;99.90;;;;;;4980365;28;20027;-73
2023/05/18 10:16:06;;;;;;;10.73;2.40;;;17.10;99.90;;;;;;4979508;28;20031;-73
2023/05/18 10:18:37;;;;;;;8.93;2.30;;;17.40;99.90;;;;;;4979514;28;20023;-76
2023/05/18 10:21:05;;;;;;;7.65;2.60;;;17.60;99.90;;;;;;4980345;28;20110;-73
2023/05/18 10:23:32;;;;;;;11.93;2.10;;;17.70;99.90;;;;;;4980140;28;20116;-76
2023/05/18 10:25:58;;;;;;;7.50;2.22;;;17.80;99.90;;;;;;4979558;28;20034;-76
2023/05/18 10:28:29;;;;;;;8.77;2.20;;;17.50;99.90;;;;;;4979239;28;20030;-76
2023/05/18 10:30:56;;;;;;;5.63;1.80;;;17.70;99.90;;;;;;4979327;28;20031;-76
2023/05/18 10:33:24;;;;;;;10.70;1.90;;;17.60;99.90;;;;;;4979837;28;20097;-76
2023/05/18 10:35:51;;;;;;;5.45;1.95;;;18.30;99.90;;;;;;4979097;28;20074;-73
2023/05/18 10:38:19;;;;;;;9.07;2.10;;;18.70;99.90;;;;;;4979911;28;20054;-73
2023/05/18 10:40:48;;;;;;;10.93;2.55;;;19.00;96.80;;;;;;4979860;28;20026;-72
2023/05/18 10:43:16;;;;;;;9.82;2.00;;;19.10;96.10;;;;;;4979332;28;20023;-76
2023/05/18 10:45:46;;;;;;;3.75;1.60;;;19.20;95.50;;;;;;4979974;28;20048;-76
2023/05/18 10:48:13;;;;;;;5.22;1.60;;;19.40;94.50;;;;;;4979638;28;20061;-73
2023/05/18 10:50:40;;;;;;;4.82;1.77;;;19.50;93.10;;;;;;4979742;28;20053;-73
2023/05/18 10:53:05;;;;;;;7.35;2.10;;;19.50;94.20;;;;;;4979968;28;20026;-76
2023/05/18 10:55:31;;;;;;;6.53;2.13;;;19.60;93.20;;;;;;4978590;28;20030;-73
2023/05/18 10:58:06;;;;;;;5.82;1.92;;;19.20;94.00;;;;;;4978980;28;20019;-76
2023/05/18 11:00:34;;;;;;;9.93;2.42;;;19.80;96.70;;;;;;4978789;28;20031;-76
2023/05/18 11:03:01;;;;;;;10.23;2.42;;;20.10;93.30;;;;;;4979278;28;20023;-73
2023/05/18 11:05:27;;;;;;;8.88;2.13;;;20.10;92.70;;;;;;4979707;28;20027;-78
2023/05/18 11:08:02;;;;;;;6.03;2.03;;;19.90;95.80;;;;;;4978653;28;20031;-77
2023/05/18 11:10:48;;;;;;;8.98;2.05;;;19.90;95.70;;;;;;4978723;28;20034;-76
2023/05/18 11:13:14;;;;;;;7.05;2.25;;;19.90;91.70;;;;;;4978555;28;20035;-76
2023/05/18 11:15:52;;;;;;;7.88;1.50;;;19.40;91.10;;;;;;4978916;28;20033;-73
2023/05/18 11:18:17;;;;;;;6.72;2.22;;;20.10;96.20;;;;;;4978996;28;20046;-76
2023/05/18 11:20:47;;;;;;;8.48;1.95;;;20.10;90.60;;;;;;4978584;28;20027;-76
2023/05/18 11:23:19;;;;;;;8.52;2.33;;;20.10;91.60;;;;;;4978619;28;20118;-76
2023/05/18 11:25:47;;;;;;;13.38;2.20;;;20.50;91.70;;;;;;4978921;28;20054;-76
2023/05/18 11:28:13;;;;;;;11.50;2.55;;;20.00;90.00;;;;;;4978143;28;20026;-76
2023/05/18 11:30:39;;;;;;;9.15;2.40;;;20.40;91.60;;;;;;4978449;28;20035;-76
2023/05/18 11:33:21;;;;;;;11.45;1.75;;;20.30;89.10;;;;;;4978066;28;20066;-76
2023/05/18 11:36:10;;;;;;;10.77;2.10;;;20.60;93.00;;;;;;4978575;28;20035;-73
2023/05/18 11:38:48;;;;;;;8.00;1.92;;;21.00;90.00;;;;;;4979045;28;20058;-73
2023/05/18 11:41:27;;;;;;;6.15;1.50;;;20.70;87.10;;;;;;4977910;28;20023;-76
2023/05/18 11:44:17;;;;;;;7.63;2.08;;;20.70;91.90;;;;;;4977933;28;20035;-76
2023/05/18 11:47:01;;;;;;;5.53;2.13;;;20.90;90.10;;;;;;4977932;28;20033;-73
2023/05/18 11:49:45;;;;;;;10.82;2.45;;;21.10;86.10;;;;;;4977815;28;20033;-73
2023/05/18 11:52:11;;;;;;;6.28;2.47;;;21.00;89.30;;;;;;4978576;28;20062;-73
2023/05/18 11:54:49;;;;;;;5.63;1.95;;;21.30;82.70;;;;;;4977722;28;20069;-73
2023/05/18 11:57:16;;;;;;;7.05;1.40;;;21.50;83.20;;;;;;4978488;28;20077;-73
2023/05/18 11:59:47;;;;;;;9.13;2.10;;;21.80;87.50;;;;;;4977589;28;20027;-73
2023/05/18 12:02:18;;;;;;;6.07;1.77;;;21.50;83.30;;;;;;4977902;28;20023;-73
2023/05/18 12:04:50;;;;;;;4.43;1.70;;;21.50;81.60;;;;;;4978440;28;20034;-73
2023/05/18 12:07:18;;;;;;;5.50;1.65;;;21.60;80.50;;;;;;4977540;28;20054;-73
2023/05/18 12:09:45;;;;;;;9.00;2.72;;;21.80;78.30;;;;;;4978461;28;20065;-73
2023/05/18 12:12:12;;;;;;;5.97;2.25;;;21.60;81.30;;;;;;4977470;28;20038;-73
2023/05/18 12:14:41;;;;;;;9.10;2.10;;;22.20;80.80;;;;;;4977382;28;20031;-73
2023/05/18 12:17:06;;;;;;;8.27;1.80;;;22.40;80.20;;;;;;4978669;28;20042;-76
2023/05/18 12:19:43;;;;;;;5.85;1.98;;;22.10;78.50;;;;;;4977390;28;20027;-77
2023/05/18 12:22:10;;;;;;;6.07;2.00;;;21.60;79.90;;;;;;4977746;28;20035;-76
2023/05/18 12:24:40;;;;;;;6.00;1.83;;;21.70;80.50;;;;;;4977339;28;20081;-76
2023/05/18 12:27:10;;;;;;;7.68;2.42;;;21.70;79.10;;;;;;4977190;28;20023;-76
2023/05/18 12:29:41;;;;;;;8.70;1.98;;;21.80;79.10;;;;;;4977475;28;20166;-76
2023/05/18 12:32:08;;;;;;;4.75;1.38;;;21.70;78.50;;;;;;4977388;28;20031;-76
2023/05/18 12:34:34;;;;;;;5.97;1.58;;;21.40;79.90;;;;;;4977330;28;20081;-76
2023/05/18 12:37:00;;;;;;;6.65;1.85;;;21.70;79.40;;;;;;4977116;28;20023;-76
2023/05/18 12:39:26;;;;;;;6.97;1.90;;;21.20;80.80;;;;;;4977165;28;20019;-76
2023/05/18 12:41:51;;;;;;;10.45;2.88;;;21.30;79.20;;;;;;4977332;28;20029;-76
2023/05/18 12:44:17;;;;;;;6.75;2.03;;;21.30;77.80;;;;;;4977464;28;20041;-76
2023/05/18 12:46:42;;;;;;;7.43;2.35;;;21.30;78.10;;;;;;4977476;28;20082;-76
2023/05/18 12:49:08;;;;;;;4.22;1.95;;;21.10;77.70;;;;;;4977099;28;20022;-76
2023/05/18 12:51:38;;;;;;;7.65;1.83;;;21.00;77.50;;;;;;4977749;28;20046;-76
2023/05/18 12:54:05;;;;;;;6.28;1.92;;;20.80;78.20;;;;;;4976962;28;20023;-76